Terminal Aerodrome Forecast
Issued by NWS

Home | Current Version | Previous Version | Text Only | Print | Product List | Glossary On
Versions: 1 2 3 4 5 6 7 8 9 10 11 12 13 14 15 16 17 18 19 20 21
000
FTUS41 KPBZ 220532
TAFDUJ
TAF
KDUJ 220532Z 2206/2306 12003KT P6SM OVC100
     FM220800 12004KT P6SM OVC070
      TEMPO 2208/2211 3SM BR
     FM222200 09008KT P6SM OVC035
     FM230000 09008KT P6SM OVC015
     FM230200 09009G19KT P6SM OVC008=

USA.gov is the U.S. government's official web portal to all federal, state and local government web resources and services.